Time;durP1;ratioP1;P1;durP2;ratioP2;P2;SDS_P1;SDS_P2;PMS_P1;PMS_P2;Temp;Humidity;BMP_temperature;BMP_pressure;BME280_temperature;BME280_humidity;BME280_pressure;Samples;Min_cycle;Max_cycle;Signal;HPM_P1;HPM_P2
2022/03/01 00:00:38;;;;;;;3.00;0.93;;;;;;;9.20;100.00;100819.25;7394156;19;20011;-51
2022/03/01 00:03:03;;;;;;;2.05;1.90;;;;;;;9.25;100.00;100818.66;7391152;19;20075;-52
2022/03/01 00:05:29;;;;;;;2.20;1.30;;;;;;;9.23;100.00;100837.00;7392447;19;20470;-52
2022/03/01 00:07:55;;;;;;;0.50;0.50;;;;;;;9.15;100.00;100830.91;7392857;19;20467;-52
2022/03/01 00:10:20;;;;;;;5.03;1.35;;;;;;;9.14;100.00;100826.53;7393471;19;20017;-50
2022/03/01 00:12:46;;;;;;;4.05;0.93;;;;;;;9.15;100.00;100830.91;7393108;19;20030;-51
2022/03/01 00:15:11;;;;;;;0.82;0.35;;;;;;;9.10;100.00;100840.56;7392985;19;20467;-52
2022/03/01 00:17:37;;;;;;;2.17;1.25;;;;;;;8.96;100.00;100829.88;7392331;19;20041;-51
2022/03/01 00:20:04;;;;;;;10.25;1.65;;;;;;;9.11;100.00;100833.78;7392853;19;20018;-52
2022/03/01 00:22:30;;;;;;;9.43;1.05;;;;;;;9.15;100.00;100828.91;7391749;19;20007;-51
2022/03/01 00:24:56;;;;;;;2.20;0.82;;;;;;;9.12;100.00;100835.34;7392653;19;20033;-52
2022/03/01 00:27:21;;;;;;;0.90;0.32;;;;;;;9.06;100.00;100839.09;7391243;19;20506;-51
2022/03/01 00:29:48;;;;;;;1.77;0.73;;;;;;;8.92;100.00;100840.28;7392913;19;20010;-52
2022/03/01 00:32:13;;;;;;;3.22;0.80;;;;;;;8.90;100.00;100841.97;7391688;19;20035;-52
2022/03/01 00:34:39;;;;;;;5.70;0.90;;;;;;;8.96;100.00;100856.84;7391439;19;20018;-52
2022/03/01 00:37:05;;;;;;;3.42;1.67;;;;;;;9.06;100.00;100851.00;7392906;19;20015;-52
2022/03/01 00:39:30;;;;;;;16.60;1.52;;;;;;;9.08;100.00;100850.53;7391720;19;20084;-51
2022/03/01 00:41:56;;;;;;;2.97;0.90;;;;;;;9.00;100.00;100858.31;7391300;19;20038;-52
2022/03/01 00:44:22;;;;;;;7.95;1.33;;;;;;;8.98;100.00;100855.22;7391180;19;20470;-51
2022/03/01 00:46:47;;;;;;;0.60;0.60;;;;;;;8.95;100.00;100858.84;7392217;19;20025;-52
2022/03/01 00:49:13;;;;;;;0.65;0.32;;;;;;;8.93;100.00;100863.28;7392686;19;20019;-52
2022/03/01 00:51:39;;;;;;;0.95;0.50;;;;;;;8.89;100.00;100865.38;7399417;19;20022;-52
2022/03/01 00:54:05;;;;;;;2.42;0.88;;;;;;;8.83;100.00;100856.81;7399916;19;20406;-51
2022/03/01 00:56:31;;;;;;;0.43;0.20;;;;;;;8.82;100.00;100873.91;7399958;19;20010;-51
2022/03/01 00:58:57;;;;;;;1.75;0.98;;;;;;;8.75;100.00;100863.78;7401287;19;20033;-51
2022/03/01 01:01:23;;;;;;;0.60;0.55;;;;;;;8.68;100.00;100872.31;7400514;19;20015;-51
2022/03/01 01:03:49;;;;;;;1.05;0.43;;;;;;;8.63;100.00;100870.06;7399452;19;20062;-51
2022/03/01 01:06:14;;;;;;;1.23;0.70;;;;;;;8.54;100.00;100875.47;7398697;19;20020;-51
2022/03/01 01:08:40;;;;;;;0.38;0.38;;;;;;;8.43;100.00;100877.72;7395722;19;20014;-51
2022/03/01 01:11:05;;;;;;;1.52;0.40;;;;;;;8.36;100.00;100875.13;7400354;19;20009;-51
2022/03/01 01:13:31;;;;;;;0.50;0.35;;;;;;;8.26;100.00;100887.28;7397574;19;20023;-51
2022/03/01 01:15:57;;;;;;;1.30;0.70;;;;;;;8.14;100.00;100879.66;7399471;19;20450;-51
2022/03/01 01:18:23;;;;;;;1.00;1.00;;;;;;;8.04;100.00;100886.22;7396425;19;20018;-51
2022/03/01 01:20:49;;;;;;;3.60;0.85;;;;;;;7.92;100.00;100884.94;7400234;19;20017;-51
2022/03/01 01:23:15;;;;;;;11.45;1.15;;;;;;;7.85;100.00;100889.84;7398640;19;20006;-51
2022/03/01 01:25:40;;;;;;;0.43;0.43;;;;;;;7.73;100.00;100885.00;7397463;19;20015;-51
2022/03/01 01:28:06;;;;;;;1.58;0.60;;;;;;;7.55;100.00;100899.25;7399033;19;20011;-51
2022/03/01 01:30:33;;;;;;;6.97;1.90;;;;;;;7.52;100.00;100892.56;7399561;19;20015;-51
2022/03/01 01:32:59;;;;;;;3.45;1.35;;;;;;;7.45;100.00;100900.28;7398196;19;20006;-51
2022/03/01 01:35:27;;;;;;;2.72;0.30;;;;;;;7.40;100.00;100903.53;7395283;19;20010;-51
2022/03/01 01:37:55;;;;;;;3.10;1.02;;;;;;;7.41;100.00;100900.31;7397530;19;20017;-51
2022/03/01 01:40:24;;;;;;;0.32;0.32;;;;;;;7.33;100.00;100907.25;7398205;19;20015;-51
2022/03/01 01:42:51;;;;;;;4.80;0.45;;;;;;;7.30;100.00;100902.53;7396098;19;20007;-52
2022/03/01 01:45:18;;;;;;;14.48;1.75;;;;;;;7.28;100.00;100904.16;7395499;19;20494;-49
2022/03/01 01:47:44;;;;;;;0.25;0.25;;;;;;;7.20;100.00;100900.78;7394820;19;20030;-51
2022/03/01 01:50:10;;;;;;;0.85;0.80;;;;;;;7.15;100.00;100909.59;7398167;19;20014;-51
2022/03/01 01:52:36;;;;;;;0.50;0.50;;;;;;;7.10;100.00;100923.94;7394923;19;20017;-51
2022/03/01 01:55:03;;;;;;;0.40;0.20;;;;;;;7.10;100.00;100923.94;7396592;19;20018;-51
2022/03/01 01:57:28;;;;;;;1.30;1.00;;;;;;;7.06;100.00;100919.69;7396062;19;20010;-51
2022/03/01 01:59:55;;;;;;;0.60;0.60;;;;;;;7.00;100.00;100913.84;7398115;19;20040;-51
2022/03/01 02:02:23;;;;;;;2.15;1.08;;;;;;;6.93;100.00;100925.03;7395815;19;20086;-51
2022/03/01 02:04:49;;;;;;;11.05;1.92;;;;;;;6.91;100.00;100924.69;7397514;19;20148;-51
2022/03/01 02:07:15;;;;;;;0.55;0.20;;;;;;;6.89;100.00;100924.34;7397073;19;20400;-51
2022/03/01 02:09:41;;;;;;;0.57;0.57;;;;;;;6.86;100.00;100925.97;7397315;19;20091;-51
2022/03/01 02:12:07;;;;;;;1.17;0.50;;;;;;;6.87;100.00;100926.75;7398191;19;20006;-51
2022/03/01 02:14:35;;;;;;;0.43;0.43;;;;;;;6.82;100.00;100935.56;7396134;19;20015;-51
2022/03/01 02:17:03;;;;;;;1.55;1.20;;;;;;;6.79;100.00;100939.16;7397323;19;20017;-51
2022/03/01 02:19:30;;;;;;;11.88;0.98;;;;;;;6.73;100.00;100935.34;7395859;19;20462;-51
2022/03/01 02:21:56;;;;;;;1.40;0.50;;;;;;;6.71;100.00;100940.50;7396121;19;20002;-51
2022/03/01 02:24:25;;;;;;;3.40;0.60;;;;;;;6.67;100.00;100935.03;7396244;19;20014;-50
2022/03/01 02:26:59;;;;;;;0.85;0.65;;;;;;;6.66;100.00;100954.81;7396023;19;20033;-51
2022/03/01 02:29:25;;;;;;;1.27;1.15;;;;;;;6.66;100.00;100940.97;7395880;19;20023;-51
2022/03/01 02:31:54;;;;;;;15.95;1.60;;;;;;;6.64;100.00;100940.63;7396037;19;20006;-51
2022/03/01 02:34:20;;;;;;;0.30;0.22;;;;;;;6.61;100.00;100941.47;7393877;19;20454;-51
2022/03/01 02:36:46;;;;;;;0.90;0.57;;;;;;;6.59;100.00;100936.34;7396663;19;20021;-51
2022/03/01 02:39:13;;;;;;;3.10;0.40;;;;;;;6.56;100.00;100939.97;7396505;19;20015;-51
2022/03/01 02:41:44;;;;;;;2.83;0.65;;;;;;;6.57;100.00;100940.75;7397597;19;20494;-50
2022/03/01 02:44:11;;;;;;;14.60;0.90;;;;;;;6.56;100.00;100941.97;7396036;19;20007;-51
2022/03/01 02:46:37;;;;;;;0.35;0.30;;;;;;;6.60;100.00;100950.97;7394922;19;20474;-50
2022/03/01 02:49:04;;;;;;;0.43;0.43;;;;;;;6.66;100.00;100952.06;7395588;19;20490;-50
2022/03/01 02:51:30;;;;;;;0.40;0.40;;;;;;;6.63;100.00;100939.06;7395766;19;20070;-50
2022/03/01 02:53:56;;;;;;;7.55;0.90;;;;;;;6.61;100.00;100950.56;7396031;19;20000;-51
2022/03/01 02:56:22;;;;;;;0.90;0.63;;;;;;;6.58;100.00;100953.41;7393112;19;20019;-50
2022/03/01 02:58:48;;;;;;;3.30;1.50;;;;;;;6.50;100.00;100961.00;7393972;19;20007;-51
2022/03/01 03:01:13;;;;;;;0.50;0.30;;;;;;;6.46;100.00;100956.75;7397514;19;20010;-51
2022/03/01 03:03:39;;;;;;;1.63;0.60;;;;;;;6.45;100.00;100955.97;7394417;19;20082;-51
2022/03/01 03:06:04;;;;;;;3.05;0.60;;;;;;;6.42;100.00;100961.56;7395726;19;20420;-50
2022/03/01 03:08:31;;;;;;;1.85;0.35;;;;;;;6.40;100.00;100969.50;7395075;19;20082;-50
2022/03/01 03:10:57;;;;;;;0.20;0.10;;;;;;;6.33;100.00;100964.06;7396804;19;20010;-50
2022/03/01 03:13:24;;;;;;;0.57;0.50;;;;;;;6.35;100.00;100956.91;7392282;19;20015;-50
2022/03/01 03:15:50;;;;;;;5.57;1.38;;;;;;;6.31;100.00;100955.41;7393358;19;20010;-50
2022/03/01 03:18:15;;;;;;;8.85;2.10;;;;;;;6.25;100.00;100968.94;7394942;19;20033;-50
2022/03/01 03:20:41;;;;;;;0.47;0.38;;;;;;;6.19;100.00;100976.16;7395915;19;20082;-51
2022/03/01 03:23:07;;;;;;;3.03;1.65;;;;;;;6.18;100.00;100990.38;7396137;19;20015;-50
2022/03/01 03:25:32;;;;;;;0.32;0.28;;;;;;;6.13;100.00;100981.38;7393432;19;20010;-50
2022/03/01 03:27:59;;;;;;;1.33;0.63;;;;;;;6.11;100.00;100980.22;7394632;19;20010;-50
2022/03/01 03:30:25;;;;;;;0.88;0.82;;;;;;;6.02;100.00;100988.28;7395260;19;20011;-50
2022/03/01 03:32:51;;;;;;;0.30;0.30;;;;;;;5.98;100.00;100988.31;7393619;19;20041;-51
2022/03/01 03:35:16;;;;;;;1.60;0.40;;;;;;;5.93;100.00;100980.47;7394785;19;20010;-50
2022/03/01 03:37:42;;;;;;;4.82;0.47;;;;;;;5.93;100.00;100979.69;7393661;19;20010;-50
2022/03/01 03:40:08;;;;;;;0.30;0.28;;;;;;;5.90;100.00;100978.56;7394147;19;20015;-51
2022/03/01 03:42:34;;;;;;;0.80;0.30;;;;;;;5.89;100.00;100979.72;7392164;19;20010;-50
2022/03/01 03:45:00;;;;;;;4.38;0.70;;;;;;;5.85;100.00;100990.06;7394209;19;20010;-50
2022/03/01 03:47:25;;;;;;;0.30;0.30;;;;;;;5.83;100.00;100989.66;7391499;19;20428;-51
2022/03/01 03:49:51;;;;;;;1.10;0.75;;;;;;;5.74;100.00;100992.16;7395334;19;20014;-50
2022/03/01 03:52:16;;;;;;;0.35;0.35;;;;;;;5.72;100.00;100994.56;7392113;19;20410;-50
2022/03/01 03:54:42;;;;;;;2.40;1.35;;;;;;;5.67;100.00;100989.50;7393197;19;20022;-50
2022/03/01 03:57:08;;;;;;;0.20;0.20;;;;;;;5.67;100.00;100989.50;7394285;19;20014;-51
2022/03/01 03:59:38;;;;;;;1.58;0.45;;;;;;;5.63;100.00;100991.50;7393761;19;20010;-51
2022/03/01 04:02:05;;;;;;;5.53;0.82;;;;;;;5.58;100.00;100978.16;7392379;19;20011;-51
2022/03/01 04:04:32;;;;;;;1.30;0.85;;;;;;;5.57;100.00;100990.41;7392520;19;20021;-51
2022/03/01 04:06:57;;;;;;;0.77;0.32;;;;;;;5.57;100.00;100995.94;7393949;19;20002;-51
2022/03/01 04:09:23;;;;;;;0.70;0.68;;;;;;;5.55;100.00;100992.78;7392289;19;20029;-51
2022/03/01 04:11:49;;;;;;;4.07;1.38;;;;;;;5.44;100.00;100986.63;7393816;19;20034;-50
2022/03/01 04:14:17;;;;;;;1.17;0.50;;;;;;;5.37;100.00;100995.00;7393313;19;20047;-50
2022/03/01 04:16:44;;;;;;;1.20;0.32;;;;;;;5.35;100.00;101016.72;7392351;19;20018;-50
2022/03/01 04:19:11;;;;;;;2.40;1.48;;;;;;;5.34;100.00;101009.63;7393564;19;20010;-50
2022/03/01 04:21:37;;;;;;;0.32;0.32;;;;;;;5.28;100.00;101017.56;7394147;19;20014;-50
2022/03/01 04:24:03;;;;;;;0.98;0.98;;;;;;;5.22;100.00;101010.94;7390279;19;20010;-50
2022/03/01 04:26:29;;;;;;;0.60;0.60;;;;;;;5.19;100.00;101014.53;7392213;19;20013;-50
2022/03/01 04:28:55;;;;;;;2.75;0.68;;;;;;;5.18;100.00;101018.47;7392427;19;20010;-50
2022/03/01 04:31:21;;;;;;;1.05;0.50;;;;;;;5.20;100.00;101007.00;7394250;19;20031;-50
2022/03/01 04:33:47;;;;;;;3.80;1.08;;;;;;;5.23;100.00;101025.53;7393351;19;20050;-51
2022/03/01 04:36:13;;;;;;;2.05;0.28;;;;;;;5.23;100.00;101023.56;7392223;19;20062;-51
2022/03/01 04:38:39;;;;;;;0.57;0.57;;;;;;;5.20;100.00;101024.38;7391886;19;20018;-51
2022/03/01 04:41:05;;;;;;;0.28;0.28;;;;;;;5.10;100.00;101032.75;7393871;19;20349;-51
2022/03/01 04:43:30;;;;;;;1.35;0.47;;;;;;;5.04;100.00;101028.88;7391626;19;20016;-51
2022/03/01 04:45:56;;;;;;;3.60;1.10;;;;;;;5.07;100.00;101034.38;7392981;19;20015;-50
2022/03/01 04:48:23;;;;;;;3.72;1.55;;;;;;;5.07;100.00;101028.06;7392660;19;20002;-50
2022/03/01 04:50:49;;;;;;;1.27;0.20;;;;;;;5.12;100.00;101022.09;7393170;19;20099;-51
2022/03/01 04:53:15;;;;;;;0.60;0.35;;;;;;;5.13;100.00;101029.19;7392400;19;20485;-50
2022/03/01 04:55:41;;;;;;;0.57;0.57;;;;;;;5.04;100.00;101037.16;7392319;19;20014;-50
2022/03/01 04:58:06;;;;;;;0.55;0.22;;;;;;;5.00;100.00;101036.41;7392602;19;20078;-50
2022/03/01 05:00:32;;;;;;;3.30;0.70;;;;;;;5.00;100.00;101039.19;7393098;19;20034;-50
2022/03/01 05:02:58;;;;;;;0.30;0.30;;;;;;;5.03;100.00;101039.13;7391436;19;20070;-50
2022/03/01 05:05:23;;;;;;;0.65;0.60;;;;;;;5.02;100.00;101032.06;7389944;19;20002;-50
2022/03/01 05:07:49;;;;;;;5.72;1.20;;;;;;;5.00;100.00;101028.91;7392740;19;20007;-50
2022/03/01 05:10:19;;;;;;;0.80;0.75;;;;;;;4.98;100.00;101025.00;7391974;19;20028;-50
2022/03/01 05:12:53;;;;;;;2.55;0.60;;;;;;;4.96;100.00;101032.91;7391367;19;20455;-50
2022/03/01 05:15:21;;;;;;;0.17;0.17;;;;;;;4.89;100.00;101030.22;7390682;19;20019;-49
2022/03/01 05:17:47;;;;;;;0.20;0.20;;;;;;;4.86;100.00;101033.78;7391649;19;20034;-49
2022/03/01 05:20:16;;;;;;;0.45;0.45;;;;;;;4.77;100.00;101037.00;7393451;19;20011;-50
2022/03/01 05:22:42;;;;;;;2.13;0.60;;;;;;;4.76;100.00;101040.19;7391427;19;20018;-50
2022/03/01 05:25:12;;;;;;;3.30;1.10;;;;;;;4.73;100.00;101032.72;7391363;19;20070;-50
2022/03/01 05:27:40;;;;;;;1.90;1.63;;;;;;;4.70;100.00;101033.53;7390970;19;20039;-50
2022/03/01 05:30:07;;;;;;;0.82;0.82;;;;;;;4.65;100.00;101039.47;7392679;19;20038;-50
2022/03/01 05:32:34;;;;;;;1.02;0.95;;;;;;;4.64;100.00;101033.16;7390948;19;20361;-50
2022/03/01 05:35:00;;;;;;;0.50;0.40;;;;;;;4.62;100.00;101030.03;7391365;19;20455;-50
2022/03/01 05:37:26;;;;;;;0.77;0.77;;;;;;;4.63;100.00;101028.06;7396896;19;20006;-50
2022/03/01 05:39:51;;;;;;;0.30;0.30;;;;;;;4.63;100.00;101036.34;7398357;19;20019;-50
2022/03/01 05:42:18;;;;;;;4.00;0.68;;;;;;;4.63;100.00;101041.88;7397195;19;20036;-50
2022/03/01 05:44:44;;;;;;;0.30;0.30;;;;;;;4.58;100.00;101032.03;7396684;19;20578;-51
2022/03/01 05:47:10;;;;;;;0.25;0.25;;;;;;;4.55;100.00;101041.91;7397663;19;20006;-50
2022/03/01 05:49:35;;;;;;;0.57;0.57;;;;;;;4.52;100.00;101039.19;7397385;19;20014;-50
2022/03/01 05:52:01;;;;;;;4.40;0.82;;;;;;;4.50;100.00;101042.34;7397295;19;20063;-50
2022/03/01 05:54:27;;;;;;;0.50;0.50;;;;;;;4.54;100.00;101045.88;7396032;19;20011;-50
2022/03/01 05:56:52;;;;;;;4.05;0.57;;;;;;;4.68;100.00;101049.72;7395390;19;20417;-50
2022/03/01 05:59:18;;;;;;;0.10;0.10;;;;;;;4.75;100.00;101039.41;7395641;19;20372;-49
2022/03/01 06:01:44;;;;;;;0.20;0.20;;;;;;;4.80;100.00;101046.44;7399153;19;20028;-50
2022/03/01 06:04:09;;;;;;;2.38;0.50;;;;;;;4.79;100.00;101042.09;7395984;19;20034;-50
2022/03/01 06:06:35;;;;;;;0.30;0.30;;;;;;;4.73;100.00;101046.50;7396832;19;20022;-50
2022/03/01 06:09:00;;;;;;;1.50;1.40;;;;;;;4.63;100.00;101037.91;7396856;19;20048;-50
2022/03/01 06:11:26;;;;;;;10.32;0.93;;;;;;;4.55;100.00;101036.41;7398301;19;20018;-50
2022/03/01 06:13:51;;;;;;;0.40;0.40;;;;;;;4.52;100.00;101037.22;7396421;19;20552;-50
2022/03/01 06:16:17;;;;;;;3.80;0.32;;;;;;;4.46;100.00;101033.31;7397605;19;20016;-50
2022/03/01 06:18:43;;;;;;;0.30;0.30;;;;;;;4.40;100.00;101034.94;7398826;19;20011;-50
2022/03/01 06:21:09;;;;;;;0.32;0.32;;;;;;;4.36;100.00;101033.38;7400172;19;20544;-50
2022/03/01 06:23:34;;;;;;;0.50;0.50;;;;;;;4.32;100.00;101033.41;7396127;19;20413;-50
2022/03/01 06:26:00;;;;;;;0.60;0.60;;;;;;;4.28;100.00;101037.38;7396551;19;20074;-50
2022/03/01 06:28:26;;;;;;;2.75;0.50;;;;;;;4.23;100.00;101041.34;7396258;19;20034;-49
2022/03/01 06:30:51;;;;;;;0.30;0.30;;;;;;;4.22;100.00;101034.25;7397369;19;20032;-49
2022/03/01 06:33:18;;;;;;;1.75;0.73;;;;;;;4.25;100.00;101047.25;7395512;19;20023;-49
2022/03/01 06:35:45;;;;;;;0.68;0.50;;;;;;;4.29;100.00;101050.75;7395344;19;20037;-50
2022/03/01 06:38:11;;;;;;;3.85;1.10;;;;;;;4.30;100.00;101057.84;7396269;19;20003;-50
2022/03/01 06:40:37;;;;;;;4.57;0.82;;;;;;;4.32;100.00;101072.03;7397104;19;20017;-50
2022/03/01 06:43:03;;;;;;;0.32;0.30;;;;;;;4.34;100.00;101064.13;7394117;19;20459;-50
2022/03/01 06:45:29;;;;;;;0.60;0.60;;;;;;;4.31;100.00;101062.16;7394559;19;20010;-50
2022/03/01 06:47:54;;;;;;;0.47;0.47;;;;;;;4.35;100.00;101065.69;7393532;19;20010;-50
2022/03/01 06:50:21;;;;;;;0.43;0.43;;;;;;;4.41;100.00;101069.59;7396263;19;20022;-50
2022/03/01 06:52:46;;;;;;;3.20;1.00;;;;;;;4.38;100.00;101070.41;7396062;19;20010;-50
2022/03/01 06:55:13;;;;;;;0.30;0.30;;;;;;;4.35;100.00;101073.19;7395083;19;20010;-50
2022/03/01 06:57:43;;;;;;;0.65;0.50;;;;;;;4.38;100.00;101081.44;7394716;19;20342;-50
2022/03/01 07:00:10;;;;;;;1.85;0.32;;;;;;;4.45;100.00;101092.44;7397398;19;20022;-50
2022/03/01 07:02:38;;;;;;;0.20;0.20;;;;;;;4.49;100.00;101101.47;7395260;19;20459;-49
2022/03/01 07:05:12;;;;;;;11.30;2.42;;;;;;;4.49;100.00;101097.91;7394265;19;20022;-50
2022/03/01 07:07:38;;;;;;;13.07;1.98;;;;;;;4.55;100.00;101102.59;7395176;19;19998;-50
2022/03/01 07:10:06;;;;;;;1.95;1.80;;;;;;;4.61;100.00;101109.25;7396619;19;20014;-50
2022/03/01 07:12:31;;;;;;;0.90;0.85;;;;;;;4.67;100.00;101114.34;7394142;19;20483;-50
2022/03/01 07:14:57;;;;;;;0.70;0.70;;;;;;;4.68;100.00;101115.94;7394685;19;20007;-50
2022/03/01 07:17:23;;;;;;;0.70;0.70;;;;;;;4.63;100.00;101104.13;7392777;19;20026;-50
2022/03/01 07:19:49;;;;;;;0.43;0.43;;;;;;;4.67;100.00;101112.38;7394332;19;20038;-50
2022/03/01 07:22:15;;;;;;;1.20;0.82;;;;;;;4.65;100.00;101112.00;7393375;19;20011;-50
2022/03/01 07:24:41;;;;;;;0.43;0.43;;;;;;;4.64;100.00;101110.41;7392861;19;20014;-50
2022/03/01 07:27:07;;;;;;;0.10;0.10;;;;;;;4.70;100.00;101121.84;7394207;19;20010;-50
2022/03/01 07:29:33;;;;;;;2.65;1.05;;;;;;;4.73;100.00;101143.06;7394533;19;20029;-50
2022/03/01 07:31:59;;;;;;;9.73;0.95;;;;;;;4.77;100.00;101135.56;7394942;19;20014;-50
2022/03/01 07:34:25;;;;;;;8.40;1.40;;;;;;;4.82;100.00;101137.91;7393457;19;20021;-49
2022/03/01 07:36:52;;;;;;;0.35;0.35;;;;;;;4.91;100.00;101152.03;7394581;19;20038;-50
2022/03/01 07:39:17;;;;;;;0.20;0.20;;;;;;;5.02;100.00;101149.97;7393762;19;20022;-49
2022/03/01 07:41:43;;;;;;;2.30;1.65;;;;;;;5.07;100.00;101155.03;7395949;19;20010;-50
2022/03/01 07:44:11;;;;;;;0.60;0.60;;;;;;;5.12;100.00;101146.34;7391922;19;20074;-50
2022/03/01 07:46:36;;;;;;;4.00;0.80;;;;;;;5.20;100.00;101153.34;7393705;19;20015;-50
2022/03/01 07:49:03;;;;;;;0.45;0.45;;;;;;;5.27;100.00;101156.06;7393825;19;20006;-50
2022/03/01 07:51:28;;;;;;;0.93;0.90;;;;;;;5.36;100.00;101161.91;7394288;19;20014;-49
2022/03/01 07:53:54;;;;;;;1.45;1.20;;;;;;;5.46;100.00;101172.06;7393006;19;20014;-50
2022/03/01 07:56:21;;;;;;;1.60;1.00;;;;;;;5.55;100.00;101158.56;7392301;19;20459;-49
2022/03/01 07:58:48;;;;;;;1.55;1.08;;;;;;;5.67;100.00;101168.34;7392594;19;20017;-50
2022/03/01 08:01:14;;;;;;;0.55;0.55;;;;;;;5.78;100.00;101155.97;7395181;19;20459;-51
2022/03/01 08:03:40;;;;;;;4.13;0.60;;;;;;;5.97;100.00;101149.09;7392361;19;20028;-51
2022/03/01 08:06:05;;;;;;;0.45;0.40;;;;;;;6.29;100.00;101148.69;7394125;19;20011;-49
2022/03/01 08:08:31;;;;;;;1.85;0.50;;;;;;;6.44;100.00;101163.91;7393191;19;20387;-50
2022/03/01 08:10:57;;;;;;;0.28;0.28;;;;;;;6.51;100.00;101166.59;7394012;19;20459;-50
2022/03/01 08:13:24;;;;;;;0.30;0.30;;;;;;;6.51;100.00;101163.81;7392769;19;20504;-50
2022/03/01 08:15:49;;;;;;;0.40;0.40;;;;;;;6.62;100.00;101145.09;7393290;19;20359;-50
2022/03/01 08:18:15;;;;;;;0.30;0.30;;;;;;;6.67;100.00;101150.16;7392299;19;20014;-49
2022/03/01 08:20:40;;;;;;;0.20;0.20;;;;;;;6.77;100.00;101152.78;7393536;19;20006;-49
2022/03/01 08:23:06;;;;;;;3.00;0.30;;;;;;;6.85;100.00;101157.00;7394656;19;20011;-50
2022/03/01 08:25:33;;;;;;;0.20;0.20;;;;;;;6.82;100.00;101163.34;7390401;19;20014;-49
2022/03/01 08:28:00;;;;;;;0.63;0.30;;;;;;;6.86;100.00;101168.84;7393129;19;20006;-49
2022/03/01 08:30:26;;;;;;;0.35;0.35;;;;;;;6.89;100.00;101154.94;7393154;19;20021;-49
2022/03/01 08:32:52;;;;;;;0.10;0.10;;;;;;;6.92;100.00;101152.53;7392981;19;20019;-49
2022/03/01 08:35:19;;;;;;;0.40;0.40;;;;;;;6.98;100.00;101153.63;7392887;19;20018;-49
2022/03/01 08:37:46;;;;;;;1.10;0.60;;;;;;;7.01;100.00;101164.66;7391529;19;20010;-49
2022/03/01 08:40:13;;;;;;;1.27;0.52;;;;;;;7.05;100.00;101157.09;7393321;19;20010;-49
2022/03/01 08:42:39;;;;;;;7.22;0.68;;;;;;;7.11;100.00;101163.72;7391841;19;20098;-49
2022/03/01 08:45:06;;;;;;;0.10;0.10;;;;;;;7.11;100.00;101163.72;7390664;19;20018;-51
2022/03/01 08:47:32;;;;;;;0.73;0.47;;;;;;;7.14;100.00;101167.63;7391340;19;20067;-49
2022/03/01 08:49:58;;;;;;;9.52;0.85;;;;;;;7.06;100.00;101149.56;7393453;19;20014;-50
2022/03/01 08:52:23;;;;;;;0.20;0.20;;;;;;;7.00;100.00;101163.09;7392315;19;20030;-49
2022/03/01 08:54:49;;;;;;;0.20;0.10;;;;;;;7.00;100.00;101163.09;7392657;19;20019;-49
2022/03/01 08:57:14;;;;;;;2.20;1.35;;;;;;;7.14;100.00;101151.78;7391158;19;20486;-50
2022/03/01 08:59:41;;;;;;;3.75;0.30;;;;;;;7.32;100.00;101174.44;7391406;19;20006;-49
2022/03/01 09:02:06;;;;;;;0.22;0.22;;;;;;;7.46;100.00;101163.13;7392807;19;20042;-50
2022/03/01 09:04:32;;;;;;;0.40;0.40;;;;;;;7.56;100.00;101164.91;7385427;19;20073;-49
2022/03/01 09:06:58;;;;;;;0.17;0.17;;;;;;;7.63;100.00;101167.56;7391828;19;20042;-50
2022/03/01 09:09:23;;;;;;;0.28;0.28;;;;;;;7.75;100.00;101173.69;7390410;19;20007;-50
2022/03/01 09:11:49;;;;;;;0.28;0.28;;;;;;;7.74;100.00;101170.13;7395610;19;20018;-51
2022/03/01 09:14:14;;;;;;;14.18;0.45;;;;;;;7.74;100.00;101172.13;7398834;19;20014;-50
2022/03/01 09:16:40;;;;;;;0.98;0.30;;;;;;;7.81;100.00;101166.47;7397715;19;20010;-50
2022/03/01 09:19:08;;;;;;;0.30;0.30;;;;;;;7.84;100.00;101160.06;7397949;19;20011;-50
2022/03/01 09:21:34;;;;;;;1.08;0.98;;;;;;;7.88;100.00;101153.25;7399452;19;20010;-50
2022/03/01 09:24:00;;;;;;;0.35;0.35;;;;;;;7.92;100.00;101161.50;7397119;19;20359;-50
2022/03/01 09:26:25;;;;;;;0.82;0.60;;;;;;;7.95;100.00;101160.66;7397064;19;20417;-49
2022/03/01 09:28:51;;;;;;;0.40;0.40;;;;;;;8.04;100.00;101153.31;7398032;19;20011;-50
2022/03/01 09:31:16;;;;;;;0.30;0.30;;;;;;;8.09;100.00;101160.34;7398316;19;20077;-47
2022/03/01 09:33:43;;;;;;;0.55;0.50;;;;;;;8.07;100.00;101162.78;7397704;19;20486;-49
2022/03/01 09:36:10;;;;;;;0.90;0.68;;;;;;;8.08;100.00;101158.78;7396573;19;20054;-50
2022/03/01 09:38:36;;;;;;;0.15;0.15;;;;;;;8.05;100.00;101156.88;7396938;19;20046;-50
2022/03/01 09:41:02;;;;;;;19.20;0.93;;;;;;;8.00;100.00;101157.38;7399849;19;20412;-50
2022/03/01 09:43:27;;;;;;;2.70;0.43;;;;;;;8.04;100.00;101153.31;7397066;19;20456;-49
2022/03/01 09:45:53;;;;;;;0.20;0.20;;;;;;;8.11;100.00;101158.72;7396550;19;20470;-50
2022/03/01 09:48:18;;;;;;;0.20;0.20;;;;;;;8.12;100.00;101153.97;7397099;19;20786;-49
2022/03/01 09:50:45;;;;;;;0.20;0.20;;;;;;;8.09;100.00;101160.34;7399902;19;20015;-50
2022/03/01 09:53:11;;;;;;;0.15;0.15;;;;;;;8.08;100.00;101153.22;7398219;19;20328;-50
2022/03/01 09:55:37;;;;;;;0.20;0.20;;;;;;;8.22;100.00;101161.28;7394617;19;20068;-51
2022/03/01 09:58:03;;;;;;;0.10;0.10;;;;;;;8.24;100.00;101165.19;7396335;19;20002;-49
2022/03/01 10:00:29;;;;;;;0.28;0.28;;;;;;;8.36;100.00;101166.56;7397142;19;20047;-49
2022/03/01 10:02:57;;;;;;;0.30;0.30;;;;;;;8.45;100.00;101172.31;7397324;19;20006;-50
2022/03/01 10:05:37;;;;;;;0.10;0.10;;;;;;;8.52;100.00;101166.63;7393862;19;20010;-49
2022/03/01 10:08:29;;;;;;;0.17;0.17;;;;;;;8.59;100.00;101177.56;7397434;19;20015;-50
2022/03/01 10:10:57;;;;;;;0.20;0.20;;;;;;;8.60;100.00;101172.81;7397865;19;20019;-49
2022/03/01 10:13:28;;;;;;;0.32;0.20;;;;;;;8.55;100.00;101165.78;7396452;19;20040;-49
2022/03/01 10:16:15;;;;;;;2.08;1.55;;;;;;;8.81;100.00;101178.69;7396739;19;20011;-50
2022/03/01 10:18:51;;;;;;;1.30;0.88;;;;;;;9.01;100.00;101178.59;7396511;19;20014;-50
2022/03/01 10:21:19;;;;;;;3.70;0.20;;;;;;;9.11;100.00;101181.16;7396207;19;20482;-49
2022/03/01 10:23:54;;;;;;;3.17;0.40;;;;;;;9.18;100.00;101187.75;7396592;19;20009;-49
2022/03/01 10:26:26;;;;;;;2.40;1.05;;;;;;;9.33;100.00;101191.75;7395467;19;20127;-49
2022/03/01 10:28:58;;;;;;;0.22;0.22;;;;;;;9.45;100.00;101188.25;7396773;19;20478;-49
2022/03/01 10:31:29;;;;;;;0.75;0.50;;;;;;;9.53;100.00;101186.88;7395624;19;20013;-49
2022/03/01 10:34:02;;;;;;;6.78;1.13;;;;;;;9.64;100.00;101184.56;7396378;19;20017;-50
2022/03/01 10:36:32;;;;;;;0.63;0.40;;;;;;;9.73;100.00;101188.31;7393843;19;20017;-49
2022/03/01 10:39:09;;;;;;;0.75;0.57;;;;;;;9.83;100.00;101192.81;7396622;19;20431;-50
2022/03/01 10:41:37;;;;;;;2.05;0.50;;;;;;;9.88;100.00;101191.50;7396774;19;20513;-49
2022/03/01 10:44:04;;;;;;;0.20;0.20;;;;;;;9.95;100.00;101182.97;7395940;19;20091;-50
2022/03/01 10:46:37;;;;;;;0.10;0.10;;;;;;;9.98;100.00;101184.88;7395726;19;20014;-49
2022/03/01 10:49:09;;;;;;;1.10;0.25;;;;;;;10.03;100.00;101184.31;7395392;19;20006;-50
2022/03/01 10:51:53;;;;;;;0.40;0.40;;;;;;;10.14;100.00;101189.63;7396659;19;20014;-49
2022/03/01 10:54:32;;;;;;;1.23;0.52;;;;;;;10.20;100.00;101171.19;7394158;19;20014;-49
2022/03/01 10:57:00;;;;;;;1.27;0.60;;;;;;;10.28;100.00;101184.47;7394830;19;20085;-50
2022/03/01 10:59:28;;;;;;;0.40;0.40;;;;;;;10.36;100.00;101166.31;7394033;19;20038;-49
2022/03/01 11:01:54;;;;;;;0.10;0.10;;;;;;;10.49;100.00;101172.69;7395818;19;20015;-49
2022/03/01 11:04:21;;;;;;;0.85;0.70;;;;;;;10.62;100.00;101173.50;7393893;19;20010;-49
2022/03/01 11:06:48;;;;;;;1.30;0.20;;;;;;;10.78;100.00;101172.63;7395845;19;19999;-49
2022/03/01 11:09:15;;;;;;;0.70;0.57;;;;;;;10.87;100.00;101166.38;7394848;19;20010;-49
2022/03/01 11:11:42;;;;;;;0.15;0.15;;;;;;;10.92;100.00;101168.59;7396522;19;20010;-49
2022/03/01 11:14:10;;;;;;;0.55;0.40;;;;;;;10.95;100.00;101165.72;7394066;19;20010;-51
2022/03/01 11:17:20;;;;;;;0.10;0.10;;;;;;;11.09;100.00;101153.31;7392595;19;20034;-49
2022/03/01 11:20:04;;;;;;;2.40;0.45;;;;;;;11.14;100.00;101161.13;7395280;19;20502;-49
2022/03/01 11:22:45;;;;;;;1.30;0.30;;;;;;;11.17;100.00;101154.66;7392967;19;20129;-49